createdAt,value
2022-12-14T00:01:09.312Z,34.63
2022-12-14T00:03:35.530Z,39.42
2022-12-14T00:06:13.662Z,37.17
2022-12-14T00:08:41.915Z,33.77
2022-12-14T00:11:08.385Z,35.47
2022-12-14T00:13:34.482Z,33.27
2022-12-14T00:16:11.330Z,36.43
2022-12-14T00:18:37.436Z,37.67
2022-12-14T00:21:07.130Z,40.40
2022-12-14T00:23:38.710Z,38.85
2022-12-14T00:26:08.210Z,36.93
2022-12-14T00:28:34.118Z,35.40
2022-12-14T00:31:00.008Z,34.67
2022-12-14T00:33:25.918Z,33.07
2022-12-14T00:35:51.720Z,35.20
2022-12-14T00:38:20.637Z,35.33
2022-12-14T00:40:46.365Z,36.13
2022-12-14T00:43:12.128Z,34.70
2022-12-14T00:45:37.860Z,34.60
2022-12-14T00:48:03.720Z,36.43
2022-12-14T00:50:29.442Z,31.07
2022-12-14T00:52:55.157Z,39.00
2022-12-14T00:55:20.868Z,38.73
2022-12-14T00:57:46.574Z,36.83
2022-12-14T01:00:12.591Z,39.20
2022-12-14T01:02:38.334Z,35.07
2022-12-14T01:05:04.277Z,32.93
2022-12-14T01:07:30.023Z,34.03
2022-12-14T01:10:00.782Z,30.97
2022-12-14T01:12:26.612Z,36.00
2022-12-14T01:14:52.363Z,36.60
2022-12-14T01:17:18.095Z,32.73
2022-12-14T01:19:43.809Z,32.87
2022-12-14T01:22:14.881Z,34.43
2022-12-14T01:24:42.836Z,34.80
2022-12-14T01:27:08.570Z,37.40
2022-12-14T01:29:34.292Z,37.97
2022-12-14T01:32:00.040Z,35.07
2022-12-14T01:34:25.775Z,34.93
2022-12-14T01:36:51.488Z,35.60
2022-12-14T01:39:17.223Z,33.43
2022-12-14T01:41:44.401Z,37.67
2022-12-14T01:44:10.100Z,35.60
2022-12-14T01:46:49.840Z,35.93
2022-12-14T01:49:38.914Z,33.15
2022-12-14T01:52:11.368Z,30.87
2022-12-14T01:54:43.444Z,36.53
2022-12-14T01:57:16.539Z,35.43
2022-12-14T01:59:44.357Z,41.33
2022-12-14T02:02:11.094Z,29.13
2022-12-14T02:04:41.117Z,37.30
2022-12-14T02:07:06.983Z,33.28
2022-12-14T02:09:34.492Z,33.27
2022-12-14T02:12:03.926Z,31.60
2022-12-14T02:14:29.910Z,24.02
2022-12-14T02:16:56.668Z,32.20
2022-12-14T02:19:22.611Z,35.97
2022-12-14T02:22:05.934Z,34.97
2022-12-14T02:24:46.785Z,32.90
2022-12-14T02:27:18.472Z,32.37
2022-12-14T02:29:50.086Z,33.50
2022-12-14T02:32:34.512Z,34.90
2022-12-14T02:35:19.082Z,35.10
2022-12-14T02:37:49.151Z,32.23
2022-12-14T02:40:29.482Z,31.25
2022-12-14T02:43:01.258Z,35.72
2022-12-14T02:45:32.994Z,32.90
2022-12-14T02:48:06.010Z,35.80
2022-12-14T02:50:40.859Z,34.13
2022-12-14T02:53:15.335Z,33.07
2022-12-14T02:55:47.727Z,33.87
2022-12-14T02:58:28.047Z,35.60
2022-12-14T03:00:57.170Z,37.75
2022-12-14T03:03:23.036Z,39.70
2022-12-14T03:05:58.456Z,30.97
2022-12-14T03:08:25.795Z,36.27
2022-12-14T03:10:57.244Z,33.97
2022-12-14T03:13:41.624Z,31.00
2022-12-14T03:16:09.418Z,27.57
2022-12-14T03:18:37.206Z,31.90
2022-12-14T03:21:03.432Z,42.00
2022-12-14T03:23:31.951Z,32.43
2022-12-14T03:26:00.648Z,33.40
2022-12-14T03:28:29.947Z,33.77
2022-12-14T03:31:00.637Z,32.87
2022-12-14T03:33:27.680Z,35.60
2022-12-14T03:35:59.304Z,34.70
2022-12-14T03:38:46.037Z,30.47
2022-12-14T03:41:19.828Z,32.00
2022-12-14T03:43:56.924Z,33.10
2022-12-14T03:46:31.211Z,30.97
2022-12-14T03:49:07.693Z,32.73
2022-12-14T03:51:38.988Z,33.97
2022-12-14T03:54:40.152Z,32.47
2022-12-14T03:57:20.217Z,38.47
2022-12-14T04:00:01.445Z,36.05
2022-12-14T04:02:35.032Z,36.53
2022-12-14T04:05:25.964Z,31.67
2022-12-14T04:08:00.881Z,37.33
2022-12-14T04:10:54.536Z,35.73
2022-12-14T04:13:41.333Z,36.50
2022-12-14T04:16:30.200Z,38.80
2022-12-14T04:19:01.019Z,37.50
2022-12-14T04:21:43.222Z,38.50
2022-12-14T04:24:39.596Z,35.13
2022-12-14T04:27:11.900Z,36.00
2022-12-14T04:29:57.445Z,37.07
2022-12-14T04:32:29.787Z,39.23
2022-12-14T04:35:06.727Z,36.63
2022-12-14T04:37:34.714Z,41.43
2022-12-14T04:40:11.841Z,35.77
2022-12-14T04:42:44.066Z,39.60
2022-12-14T04:45:18.597Z,34.47
2022-12-14T04:48:04.677Z,35.20
2022-12-14T04:50:34.069Z,36.20
2022-12-14T04:53:07.788Z,37.05
2022-12-14T04:55:36.109Z,45.33
2022-12-14T04:58:05.864Z,36.93
2022-12-14T05:00:33.745Z,42.25
2022-12-14T05:03:11.488Z,37.47
2022-12-14T05:05:56.166Z,45.60
2022-12-14T05:08:30.825Z,40.23
2022-12-14T05:11:15.198Z,33.67
2022-12-14T05:13:48.878Z,36.78
2022-12-14T05:16:16.511Z,37.37
2022-12-14T05:18:42.841Z,37.97
2022-12-14T05:21:08.937Z,36.60
2022-12-14T05:23:34.665Z,36.13
2022-12-14T05:26:00.397Z,37.83
2022-12-14T05:28:26.116Z,39.93
2022-12-14T05:30:53.159Z,38.43
2022-12-14T05:33:19.828Z,37.13
2022-12-14T05:35:46.389Z,36.67
2022-12-14T05:38:13.280Z,36.60
2022-12-14T05:40:40.155Z,37.97
2022-12-14T05:43:07.299Z,34.20
2022-12-14T05:45:33.866Z,36.70
2022-12-14T05:48:01.155Z,39.47
2022-12-14T05:50:31.369Z,38.83
2022-12-14T05:52:59.500Z,37.73
2022-12-14T05:55:30.027Z,30.37
2022-12-14T05:57:56.693Z,37.13
2022-12-14T06:00:23.475Z,35.60
2022-12-14T06:05:31.112Z,34.17
2022-12-14T06:07:57.695Z,37.70
2022-12-14T06:10:35.635Z,33.53
2022-12-14T06:13:01.950Z,39.33
2022-12-14T06:15:33.618Z,31.50
2022-12-14T06:23:23.581Z,52.17
2022-12-14T06:25:57.330Z,37.10
2022-12-14T06:28:34.025Z,34.90
2022-12-14T06:31:00.479Z,35.03
2022-12-14T06:33:28.115Z,33.40
2022-12-14T06:38:57.648Z,33.07
2022-12-14T06:41:23.943Z,38.10
2022-12-14T06:43:54.387Z,34.63
2022-12-14T06:46:23.867Z,35.97
2022-12-14T06:48:50.526Z,34.95
2022-12-14T06:51:19.351Z,30.93
2022-12-14T06:56:30.331Z,33.20
2022-12-14T06:58:59.729Z,33.80
2022-12-14T07:01:29.950Z,34.73
2022-12-14T07:03:58.956Z,36.07
2022-12-14T07:06:29.333Z,37.40
2022-12-14T07:12:17.601Z,32.77
2022-12-14T07:17:28.484Z,34.63
2022-12-14T07:19:55.338Z,32.60
2022-12-14T07:22:21.485Z,34.83
2022-12-14T07:24:47.680Z,31.40
2022-12-14T07:27:15.080Z,33.37
2022-12-14T07:29:53.067Z,35.97
2022-12-14T07:32:20.281Z,37.23
2022-12-14T07:34:47.891Z,32.60
2022-12-14T07:37:14.689Z,35.43
2022-12-14T07:39:44.316Z,32.13
2022-12-14T07:42:12.363Z,33.15
2022-12-14T07:44:38.672Z,35.10
2022-12-14T07:47:06.405Z,34.57
2022-12-14T07:49:34.049Z,32.30
2022-12-14T07:52:00.184Z,58.47
2022-12-14T07:54:26.831Z,33.13
2022-12-14T07:56:54.175Z,38.43
2022-12-14T07:59:20.573Z,30.77
2022-12-14T08:01:47.064Z,35.13
2022-12-14T08:04:14.834Z,34.00
2022-12-14T08:06:42.722Z,33.70
2022-12-14T08:09:27.232Z,30.47
2022-12-14T08:11:54.046Z,36.57
2022-12-14T08:14:21.095Z,31.33
2022-12-14T08:16:48.811Z,35.80
2022-12-14T08:19:15.645Z,29.73
2022-12-14T08:21:42.133Z,34.40
2022-12-14T08:24:13.164Z,33.00
2022-12-14T08:26:39.277Z,29.67
2022-12-14T08:29:10.120Z,32.10
2022-12-14T08:36:53.014Z,31.50
2022-12-14T08:40:04.264Z,32.33
2022-12-14T08:42:33.721Z,37.43
2022-12-14T08:50:56.306Z,31.20
2022-12-14T08:53:27.490Z,24.97
2022-12-14T09:03:29.654Z,26.83
2022-12-14T09:05:57.072Z,23.37
2022-12-14T09:08:35.913Z,25.63
2022-12-14T09:11:06.901Z,28.33
2022-12-14T09:13:34.025Z,28.70
2022-12-14T09:16:02.711Z,26.10
2022-12-14T09:18:29.798Z,30.10
2022-12-14T09:20:59.989Z,26.63
2022-12-14T09:23:31.720Z,26.85
2022-12-14T09:26:08.286Z,25.93
2022-12-14T09:28:38.634Z,32.90
2022-12-14T09:33:34.544Z,28.37
2022-12-14T09:36:11.962Z,27.60
2022-12-14T09:38:48.764Z,26.10
2022-12-14T09:41:22.517Z,28.67
2022-12-14T09:43:55.873Z,28.57
2022-12-14T09:55:34.897Z,27.23
2022-12-14T09:58:05.467Z,28.53
2022-12-14T10:00:34.710Z,25.63
2022-12-14T10:03:16.099Z,26.10
2022-12-14T10:05:47.758Z,30.20
2022-12-14T10:08:37.644Z,32.17
2022-12-14T10:11:11.102Z,21.13
2022-12-14T10:13:39.139Z,27.17
2022-12-14T10:16:25.501Z,28.10
2022-12-14T10:19:04.660Z,30.17
2022-12-14T10:21:46.308Z,27.17
2022-12-14T10:24:24.869Z,27.10
2022-12-14T10:26:53.528Z,24.57
2022-12-14T10:29:32.674Z,28.53
2022-12-14T10:34:53.281Z,27.42
2022-12-14T10:37:25.013Z,28.08
2022-12-14T10:42:55.965Z,22.83
2022-12-14T10:48:30.140Z,24.70
2022-12-14T10:51:13.032Z,25.50
2022-12-14T10:54:00.477Z,24.17
2022-12-14T10:56:32.596Z,23.93
2022-12-14T11:04:43.289Z,26.87
2022-12-14T11:07:13.516Z,25.17
2022-12-14T11:10:09.133Z,23.13
2022-12-14T19:12:31.467Z,49.60
2022-12-14T19:15:07.333Z,47.60
2022-12-14T19:23:04.041Z,51.57
2022-12-14T19:25:40.026Z,56.03
2022-12-14T19:33:40.314Z,52.37
2022-12-14T19:36:07.147Z,48.80
2022-12-14T19:38:49.512Z,54.00
2022-12-14T19:41:17.521Z,55.55
2022-12-14T19:43:49.140Z,51.57
2022-12-14T19:51:39.485Z,54.07
2022-12-14T19:54:11.353Z,52.43
2022-12-14T19:56:43.704Z,49.33
2022-12-14T19:59:10.429Z,49.70
2022-12-14T20:01:46.268Z,50.90
2022-12-14T20:04:16.829Z,60.90
2022-12-14T20:06:42.914Z,52.63
2022-12-14T20:14:40.318Z,51.90
2022-12-14T20:17:19.588Z,57.20
2022-12-14T20:19:49.594Z,49.70
2022-12-14T20:22:16.747Z,51.63
2022-12-14T20:24:48.881Z,56.30
2022-12-14T20:27:16.425Z,60.70
2022-12-14T20:29:47.769Z,50.07
2022-12-14T20:32:13.896Z,57.77
2022-12-14T20:34:43.380Z,59.97
2022-12-14T20:37:10.102Z,56.05
2022-12-14T20:39:55.730Z,55.03
2022-12-14T20:42:21.977Z,57.97
2022-12-14T20:50:14.987Z,59.70
2022-12-14T20:55:25.787Z,61.40
2022-12-14T20:57:52.688Z,62.07
2022-12-14T21:00:26.355Z,53.93
2022-12-14T21:02:54.988Z,61.30
2022-12-14T21:05:23.811Z,64.37
2022-12-14T21:07:52.036Z,54.70
2022-12-14T21:10:33.963Z,54.40
2022-12-14T21:13:20.267Z,57.47
2022-12-14T21:15:49.262Z,53.13
2022-12-14T21:18:16.131Z,57.40
2022-12-14T21:20:42.859Z,60.27
2022-12-14T21:23:09.222Z,56.83
2022-12-14T21:25:37.782Z,51.30
2022-12-14T21:28:04.402Z,52.00
2022-12-14T21:30:33.256Z,48.47
2022-12-14T21:32:59.370Z,58.33
2022-12-14T21:35:29.516Z,60.50
2022-12-14T21:43:45.030Z,48.57
2022-12-14T21:46:14.878Z,55.57
2022-12-14T21:48:41.155Z,60.28
2022-12-14T21:51:16.220Z,52.37
2022-12-14T21:53:58.540Z,51.73
2022-12-14T21:56:56.908Z,59.93
2022-12-14T21:59:24.470Z,44.43
2022-12-14T22:01:50.686Z,61.53
2022-12-14T22:04:16.908Z,56.10
2022-12-14T22:06:44.132Z,57.63
2022-12-14T22:09:16.268Z,52.47
2022-12-14T22:11:43.859Z,46.57
2022-12-14T22:16:53.856Z,55.63
2022-12-14T22:19:24.041Z,56.27
2022-12-14T22:21:50.953Z,49.35
2022-12-14T22:24:17.740Z,53.43
2022-12-14T22:26:44.579Z,54.80
2022-12-14T22:29:13.577Z,57.77
2022-12-14T22:31:41.670Z,52.53
2022-12-14T22:34:10.386Z,48.20
2022-12-14T22:36:37.061Z,49.63
2022-12-14T22:39:19.423Z,47.10
2022-12-14T22:41:47.046Z,56.27
2022-12-14T22:44:13.583Z,51.23
2022-12-14T22:46:40.057Z,53.67
2022-12-14T22:49:06.280Z,49.73
2022-12-14T22:51:32.047Z,52.07
2022-12-14T22:53:57.933Z,47.20
2022-12-14T22:56:32.682Z,54.20
2022-12-14T22:59:07.057Z,53.43
2022-12-14T23:01:33.853Z,49.10
2022-12-14T23:04:00.022Z,56.30
2022-12-14T23:06:26.690Z,54.00
2022-12-14T23:09:14.352Z,51.10
2022-12-14T23:11:58.867Z,46.70
2022-12-14T23:14:42.960Z,49.43
2022-12-14T23:17:27.361Z,53.30
2022-12-14T23:20:11.570Z,49.17
2022-12-14T23:22:56.068Z,49.90
2022-12-14T23:25:40.316Z,42.10
2022-12-14T23:28:24.818Z,54.80
2022-12-14T23:31:09.591Z,51.47
2022-12-14T23:33:53.921Z,46.50
2022-12-14T23:36:38.242Z,51.93
2022-12-14T23:39:28.854Z,45.40
2022-12-14T23:42:13.195Z,43.63
2022-12-14T23:44:57.486Z,51.97
2022-12-14T23:47:41.730Z,52.87
2022-12-14T23:50:25.941Z,46.40
2022-12-14T23:53:10.375Z,48.70
2022-12-14T23:55:54.570Z,50.27
2022-12-14T23:58:39.164Z,49.63
